Terminal Aerodrome Forecast
Issued by NWS

Home | Current Version | Previous Version | Graphics & Text | Print | Product List | Glossary On
Versions: 1 2 3 4 5 6 7 8 9 10 11 12 13 14 15 16 17 18 19 20 21 22 23 24 25 26 27 28 29 30 31 32 33 34 35
000
FTUS43 KLOT 270300 AAC
TAFMDW
TAF AMD
KMDW 270311Z 2703/2724 16005KT 4SM -FZDZSN BR OVC007
      TEMPO 2703/2707 1 1/2SM -SN BR
     FM270700 12004KT 4SM -FZDZSN BR OVC007
     FM271000 12004KT 4SM -FZDZ BR OVC007
     FM271300 04006KT 6SM BR OVC010
     FM271600 05010KT P6SM OVC015
     FM272000 04007KT P6SM SCT030 BKN250=

USA.gov is the U.S. government's official web portal to all federal, state and local government web resources and services.